Time;durP1;ratioP1;P1;durP2;ratioP2;P2;SDS_P1;SDS_P2;PMS_P1;PMS_P2;Temp;Humidity;BMP_temperature;BMP_pressure;BME280_temperature;BME280_humidity;BME280_pressure;Samples;Min_cycle;Max_cycle;Signal;HPM_P1;HPM_P2
2023/09/19 00:01:45;;;;;;;9.57;2.40;;;;;;;;;;5092216;28;20477;-65
2023/09/19 00:04:14;;;;;;;6.80;2.28;;;;;;;;;;5096959;28;20597;-65
2023/09/19 00:06:44;;;;;;;9.60;2.55;;;;;;;;;;5091497;28;20931;-65
2023/09/19 00:09:11;;;;;;;10.20;2.40;;;;;;;;;;5096830;28;20414;-65
2023/09/19 00:11:38;;;;;;;10.13;3.08;;;;;;;;;;5094775;28;20410;-65
2023/09/19 00:14:08;;;;;;;9.45;2.72;;;;;;;;;;5098171;28;20905;-65
2023/09/19 00:16:35;;;;;;;9.30;2.40;;;;;;;;;;5095923;28;20466;-65
2023/09/19 00:19:08;;;;;;;7.03;2.55;;;;;;;;;;5095919;28;20420;-65
2023/09/19 00:21:37;;;;;;;10.77;2.97;;;;;;;;;;5094328;28;20828;-65
2023/09/19 00:24:06;;;;;;;10.73;2.83;;;;;;;;;;5094927;28;21755;-65
2023/09/19 00:26:34;;;;;;;8.45;2.55;;;;;;;;;;5109733;28;20508;-65
2023/09/19 00:29:05;;;;;;;10.57;3.10;;;;;;;;;;5102419;28;20454;-65
2023/09/19 00:31:32;;;;;;;10.10;3.00;;;;;;;;;;5094059;28;20834;-65
2023/09/19 00:34:03;;;;;;;9.02;3.00;;;;;;;;;;5094308;28;20458;-65
2023/09/19 00:36:30;;;;;;;11.32;2.97;;;;;;;;;;5096674;28;20454;-65
2023/09/19 00:38:59;;;;;;;8.05;2.65;;;;;;;;;;5096118;28;20947;-65
2023/09/19 00:41:27;;;;;;;9.73;2.70;;;;;;;;;;5096591;28;20482;-65
2023/09/19 00:43:54;;;;;;;11.88;2.70;;;;;;;;;;5096549;28;20408;-65
2023/09/19 00:46:21;;;;;;;8.90;2.65;;;;;;;;;;5096148;28;20447;-65
2023/09/19 00:48:49;;;;;;;12.00;2.97;;;;;;;;;;5092744;28;20791;-65
2023/09/19 00:51:19;;;;;;;9.75;2.58;;;;;;;;;;5096093;28;20408;-65
2023/09/19 00:53:47;;;;;;;11.45;2.55;;;;;;;;;;5092758;28;20413;-65
2023/09/19 00:56:18;;;;;;;11.32;3.00;;;;;;;;;;5117607;27;20877;-65
2023/09/19 00:58:46;;;;;;;9.63;2.53;;;;;;;;;;5106674;27;20412;-65
2023/09/19 01:01:14;;;;;;;10.73;2.70;;;;;;;;;;5098771;28;20411;-65
2023/09/19 01:03:41;;;;;;;14.35;2.78;;;;;;;;;;5095528;28;20417;-65
2023/09/19 01:06:08;;;;;;;12.55;3.00;;;;;;;;;;5102061;28;20917;-65
2023/09/19 01:08:36;;;;;;;9.43;2.60;;;;;;;;;;5095641;28;20467;-65
2023/09/19 01:11:09;;;;;;;10.52;2.53;;;;;;;;;;5102338;28;20424;-65
2023/09/19 01:13:44;;;;;;;8.93;2.53;;;;;;;;;;5095413;28;20726;-65
2023/09/19 01:16:15;;;;;;;11.23;2.70;;;;;;;;;;5102380;28;20755;-65
2023/09/19 01:18:47;;;;;;;9.90;2.80;;;;;;;;;;5099792;28;20487;-65
2023/09/19 01:21:18;;;;;;;10.68;2.45;;;;;;;;;;5101194;28;20832;-65
2023/09/19 01:23:57;;;;;;;7.95;2.78;;;;;;;;;;5097907;28;20433;-65
2023/09/19 01:26:35;;;;;;;9.03;2.50;;;;;;;;;;5116418;27;21016;-65
2023/09/19 01:29:14;;;;;;;10.73;2.93;;;;;;;;;;5104456;27;20609;-65
2023/09/19 01:31:44;;;;;;;9.35;2.35;;;;;;;;;;5098416;28;20451;-65
2023/09/19 01:34:11;;;;;;;8.50;2.38;;;;;;;;;;5099994;28;20412;-65
2023/09/19 01:36:38;;;;;;;12.50;2.90;;;;;;;;;;5103021;27;20396;-65
2023/09/19 01:39:09;;;;;;;12.03;2.60;;;;;;;;;;5113379;27;20906;-65
2023/09/19 01:41:43;;;;;;;13.50;3.00;;;;;;;;;;5099007;28;20455;-65
2023/09/19 01:44:13;;;;;;;10.38;2.70;;;;;;;;;;5099397;28;20469;-65
2023/09/19 01:46:42;;;;;;;8.20;2.55;;;;;;;;;;5095602;28;20942;-65
2023/09/19 01:49:18;;;;;;;10.15;2.75;;;;;;;;;;5098958;28;20416;-65
2023/09/19 01:51:51;;;;;;;11.45;2.50;;;;;;;;;;5095193;28;20492;-65
2023/09/19 01:54:26;;;;;;;9.05;2.65;;;;;;;;;;5102735;27;20400;-65
2023/09/19 01:56:59;;;;;;;9.32;2.28;;;;;;;;;;5108775;27;20410;-65
2023/09/19 01:59:27;;;;;;;10.25;2.45;;;;;;;;;;5104651;27;20422;-65
2023/09/19 02:01:55;;;;;;;8.88;2.88;;;;;;;;;;5095421;28;20489;-65
2023/09/19 02:04:23;;;;;;;9.30;2.58;;;;;;;;;;5099114;28;20467;-65
2023/09/19 02:06:51;;;;;;;11.15;2.60;;;;;;;;;;5094239;28;20426;-65
2023/09/19 02:09:18;;;;;;;11.90;3.00;;;;;;;;;;5099045;28;20408;-65
2023/09/19 02:11:46;;;;;;;12.00;3.25;;;;;;;;;;5093973;28;20410;-65
2023/09/19 02:14:14;;;;;;;11.38;2.80;;;;;;;;;;5098983;28;20716;-64
2023/09/19 02:16:41;;;;;;;12.07;2.67;;;;;;;;;;5096880;28;20475;-64
2023/09/19 02:19:08;;;;;;;12.73;2.97;;;;;;;;;;5098885;28;20423;-64
2023/09/19 02:21:40;;;;;;;9.25;2.50;;;;;;;;;;5096769;28;20410;-64
2023/09/19 02:24:08;;;;;;;8.65;2.65;;;;;;;;;;5098087;28;20406;-64
2023/09/19 02:26:35;;;;;;;9.30;2.80;;;;;;;;;;5113102;27;20432;-64
2023/09/19 02:29:04;;;;;;;13.27;3.30;;;;;;;;;;5104086;27;20456;-64
2023/09/19 02:31:31;;;;;;;10.57;2.78;;;;;;;;;;5097127;28;20431;-64
2023/09/19 02:33:59;;;;;;;10.43;2.50;;;;;;;;;;5097282;28;20410;-64
2023/09/19 02:36:26;;;;;;;8.40;2.07;;;;;;;;;;5096054;28;20412;-64
2023/09/19 02:38:55;;;;;;;13.05;2.50;;;;;;;;;;5096503;28;20749;-64
2023/09/19 02:41:22;;;;;;;11.48;2.80;;;;;;;;;;5098613;28;20443;-64
2023/09/19 02:43:49;;;;;;;13.57;3.03;;;;;;;;;;5095049;28;20450;-64
2023/09/19 02:46:17;;;;;;;11.73;2.90;;;;;;;;;;5106696;28;21100;-64
2023/09/19 02:48:44;;;;;;;9.40;2.67;;;;;;;;;;5102185;28;20465;-64
2023/09/19 02:51:11;;;;;;;8.88;2.53;;;;;;;;;;5103839;28;20408;-64
2023/09/19 02:53:38;;;;;;;11.25;2.60;;;;;;;;;;5101461;28;20408;-64
2023/09/19 02:56:07;;;;;;;13.50;2.75;;;;;;;;;;5107683;27;20427;-64
2023/09/19 02:58:35;;;;;;;11.20;2.60;;;;;;;;;;5103510;28;20416;-65
2023/09/19 03:01:09;;;;;;;9.70;2.63;;;;;;;;;;5102825;28;20431;-65
2023/09/19 03:03:37;;;;;;;12.63;2.90;;;;;;;;;;5091806;28;20591;-65
2023/09/19 03:06:04;;;;;;;10.00;2.67;;;;;;;;;;5091538;28;20409;-64
2023/09/19 03:08:36;;;;;;;13.38;2.78;;;;;;;;;;5095285;28;20404;-64
2023/09/19 03:11:05;;;;;;;11.85;2.65;;;;;;;;;;5103120;28;20416;-64
2023/09/19 03:13:36;;;;;;;12.20;2.58;;;;;;;;;;5100767;28;20490;-65
2023/09/19 03:16:05;;;;;;;10.82;2.85;;;;;;;;;;5100490;28;20993;-64
2023/09/19 03:18:33;;;;;;;11.48;2.97;;;;;;;;;;5100087;28;20876;-65
2023/09/19 03:21:00;;;;;;;9.35;2.60;;;;;;;;;;5100785;28;20421;-64
2023/09/19 03:23:27;;;;;;;12.68;3.08;;;;;;;;;;5091256;28;20572;-65
2023/09/19 03:25:55;;;;;;;11.90;2.37;;;;;;;;;;5106838;27;20417;-64
2023/09/19 03:28:22;;;;;;;9.23;2.30;;;;;;;;;;5104160;28;20420;-65
2023/09/19 03:31:00;;;;;;;13.23;2.93;;;;;;;;;;5101278;28;20784;-64
2023/09/19 03:33:27;;;;;;;10.68;2.42;;;;;;;;;;5100234;28;20413;-64
2023/09/19 03:35:55;;;;;;;10.20;2.53;;;;;;;;;;5100842;28;20413;-65
2023/09/19 03:38:22;;;;;;;8.18;2.30;;;;;;;;;;5102627;28;20392;-64
2023/09/19 03:40:49;;;;;;;8.18;2.45;;;;;;;;;;5101227;28;20485;-64
2023/09/19 03:43:17;;;;;;;10.25;2.78;;;;;;;;;;5099856;28;20484;-65
2023/09/19 03:45:44;;;;;;;10.73;2.55;;;;;;;;;;5101918;28;20855;-65
2023/09/19 03:48:13;;;;;;;10.32;2.80;;;;;;;;;;5102107;28;20424;-65
2023/09/19 03:50:40;;;;;;;10.32;2.65;;;;;;;;;;5100295;28;20406;-65
2023/09/19 03:53:07;;;;;;;8.73;2.25;;;;;;;;;;5100600;28;20410;-65
2023/09/19 03:55:35;;;;;;;8.60;2.72;;;;;;;;;;5108946;27;20411;-66
2023/09/19 03:58:03;;;;;;;11.32;2.67;;;;;;;;;;5102835;28;20864;-66
2023/09/19 04:00:30;;;;;;;11.27;2.75;;;;;;;;;;5099157;28;20419;-66
2023/09/19 04:02:57;;;;;;;10.30;2.90;;;;;;;;;;5101623;28;20408;-66
2023/09/19 04:05:26;;;;;;;11.97;2.43;;;;;;;;;;5101962;28;20650;-66
2023/09/19 04:07:54;;;;;;;10.05;2.45;;;;;;;;;;5100106;28;20422;-66
2023/09/19 04:10:21;;;;;;;7.63;2.63;;;;;;;;;;5100545;28;20764;-66
2023/09/19 04:12:54;;;;;;;13.48;2.80;;;;;;;;;;5102936;28;20404;-66
2023/09/19 04:15:22;;;;;;;9.35;2.40;;;;;;;;;;5104190;28;20461;-66
2023/09/19 04:17:50;;;;;;;11.52;2.53;;;;;;;;;;5100716;28;20444;-66
2023/09/19 04:20:17;;;;;;;11.27;2.47;;;;;;;;;;5100668;28;20482;-66
2023/09/19 04:22:46;;;;;;;8.45;2.30;;;;;;;;;;5101915;28;20404;-66
2023/09/19 04:25:13;;;;;;;11.13;2.70;;;;;;;;;;5106321;28;20408;-65
2023/09/19 04:27:41;;;;;;;12.65;2.90;;;;;;;;;;5105767;28;20482;-65
2023/09/19 04:30:11;;;;;;;12.25;2.53;;;;;;;;;;5099776;28;20508;-65
2023/09/19 04:32:39;;;;;;;9.77;2.25;;;;;;;;;;5099689;28;20410;-63
2023/09/19 04:35:08;;;;;;;10.82;3.10;;;;;;;;;;5101624;28;20483;-65
2023/09/19 04:37:35;;;;;;;8.35;2.50;;;;;;;;;;5106964;28;20515;-66
2023/09/19 04:40:05;;;;;;;15.05;2.92;;;;;;;;;;5104804;28;20958;-65
2023/09/19 04:42:32;;;;;;;8.25;2.60;;;;;;;;;;5102922;28;20404;-65
2023/09/19 04:45:00;;;;;;;6.87;2.43;;;;;;;;;;5101828;28;20455;-65
2023/09/19 04:47:27;;;;;;;9.15;2.45;;;;;;;;;;5100579;28;20428;-64
2023/09/19 04:49:54;;;;;;;12.77;2.72;;;;;;;;;;5102366;28;20725;-66
2023/09/19 04:52:21;;;;;;;13.40;3.63;;;;;;;;;;5099343;28;20410;-66
2023/09/19 04:54:48;;;;;;;7.55;2.22;;;;;;;;;;5101443;28;20453;-65
2023/09/19 04:57:16;;;;;;;7.32;2.55;;;;;;;;;;5115819;28;20430;-65
2023/09/19 04:59:43;;;;;;;12.77;2.97;;;;;;;;;;5100207;28;20447;-65
2023/09/19 05:02:11;;;;;;;9.50;2.60;;;;;;;;;;5101925;28;20483;-66
2023/09/19 05:04:38;;;;;;;12.07;3.30;;;;;;;;;;5100244;28;20405;-66
2023/09/19 05:07:06;;;;;;;10.30;3.00;;;;;;;;;;5103286;28;20433;-66
2023/09/19 05:09:34;;;;;;;10.82;2.67;;;;;;;;;;5100944;28;20551;-66
2023/09/19 05:12:01;;;;;;;10.30;3.03;;;;;;;;;;5100275;28;20844;-64
2023/09/19 05:14:29;;;;;;;12.50;2.72;;;;;;;;;;5102520;28;20404;-66
2023/09/19 05:16:56;;;;;;;11.23;2.70;;;;;;;;;;5105090;28;20413;-65
2023/09/19 05:19:23;;;;;;;11.85;2.55;;;;;;;;;;5102930;28;20947;-65
2023/09/19 05:21:50;;;;;;;10.07;2.80;;;;;;;;;;5100162;28;20406;-66
2023/09/19 05:24:17;;;;;;;9.93;2.55;;;;;;;;;;5100350;28;20455;-65
2023/09/19 05:26:45;;;;;;;10.53;2.73;;;;;;;;;;5103913;28;21002;-66
2023/09/19 05:29:12;;;;;;;11.80;2.60;;;;;;;;;;5102502;28;20457;-66
2023/09/19 05:31:42;;;;;;;10.98;2.95;;;;;;;;;;5100875;28;20429;-64
2023/09/19 05:34:09;;;;;;;12.85;2.90;;;;;;;;;;5101310;28;20417;-66
2023/09/19 05:36:36;;;;;;;10.07;2.53;;;;;;;;;;5104346;28;20415;-66
2023/09/19 05:39:04;;;;;;;10.85;2.72;;;;;;;;;;5103276;28;20402;-66
2023/09/19 05:41:31;;;;;;;12.82;3.08;;;;;;;;;;5107005;28;20413;-66
2023/09/19 05:43:59;;;;;;;10.98;2.70;;;;;;;;;;5103179;28;20415;-66
2023/09/19 05:46:29;;;;;;;14.70;3.20;;;;;;;;;;5106638;28;20412;-66
2023/09/19 05:48:57;;;;;;;11.25;2.65;;;;;;;;;;5105648;28;20421;-66
2023/09/19 05:51:28;;;;;;;10.35;3.10;;;;;;;;;;5104645;28;20399;-66
2023/09/19 05:53:55;;;;;;;8.07;2.53;;;;;;;;;;5102604;28;20424;-66
2023/09/19 05:56:22;;;;;;;13.23;2.72;;;;;;;;;;5114058;27;20844;-66
2023/09/19 05:58:51;;;;;;;10.65;2.90;;;;;;;;;;5102414;28;20409;-65
2023/09/19 06:01:18;;;;;;;10.07;2.30;;;;;;;;;;5103039;28;20415;-66
2023/09/19 06:03:45;;;;;;;9.90;2.97;;;;;;;;;;5106536;28;20753;-66
2023/09/19 06:06:14;;;;;;;9.02;2.60;;;;;;;;;;5106315;28;20406;-65
2023/09/19 06:08:44;;;;;;;12.30;3.05;;;;;;;;;;5101804;28;20422;-65
2023/09/19 06:11:11;;;;;;;11.50;2.92;;;;;;;;;;5102254;28;20524;-65
2023/09/19 06:13:40;;;;;;;12.50;2.90;;;;;;;;;;5101983;28;20405;-65
2023/09/19 06:16:07;;;;;;;9.32;2.58;;;;;;;;;;5101673;28;20471;-65
2023/09/19 06:18:34;;;;;;;10.20;2.47;;;;;;;;;;5102394;28;20418;-66
2023/09/19 06:21:07;;;;;;;9.63;2.55;;;;;;;;;;5104182;28;20820;-66
2023/09/19 06:23:35;;;;;;;12.63;2.63;;;;;;;;;;5103035;28;20546;-64
2023/09/19 06:26:03;;;;;;;9.45;2.83;;;;;;;;;;5107761;27;20932;-65
2023/09/19 06:28:30;;;;;;;13.35;2.60;;;;;;;;;;5104622;28;20907;-66
2023/09/19 06:30:58;;;;;;;9.47;2.60;;;;;;;;;;5101460;28;20413;-66
2023/09/19 06:33:25;;;;;;;12.18;2.60;;;;;;;;;;5103047;28;20451;-65
2023/09/19 06:35:58;;;;;;;8.88;2.58;;;;;;;;;;5103568;28;20411;-65
2023/09/19 06:38:26;;;;;;;11.10;2.72;;;;;;;;;;5092167;28;20458;-65
2023/09/19 06:40:54;;;;;;;11.02;3.03;;;;;;;;;;5092163;28;20417;-66
2023/09/19 06:43:21;;;;;;;11.57;2.40;;;;;;;;;;5101277;28;20529;-65
2023/09/19 06:45:48;;;;;;;9.40;2.40;;;;;;;;;;5101595;28;20406;-66
2023/09/19 06:48:15;;;;;;;11.77;2.53;;;;;;;;;;5104472;28;20424;-66
2023/09/19 06:50:44;;;;;;;12.07;2.80;;;;;;;;;;5102535;28;20409;-65
2023/09/19 06:53:11;;;;;;;8.55;2.28;;;;;;;;;;5100669;28;20446;-65
2023/09/19 06:55:38;;;;;;;9.17;2.40;;;;;;;;;;5108147;27;20412;-65
2023/09/19 06:58:07;;;;;;;12.13;2.58;;;;;;;;;;5105793;28;20478;-65
2023/09/19 07:00:36;;;;;;;9.50;2.33;;;;;;;;;;5091850;28;20520;-66
2023/09/19 07:03:10;;;;;;;10.02;2.75;;;;;;;;;;5091701;28;20529;-65
2023/09/19 07:05:38;;;;;;;10.63;2.38;;;;;;;;;;5101678;28;20409;-65
2023/09/19 07:08:06;;;;;;;10.25;2.70;;;;;;;;;;5102062;28;20527;-64
2023/09/19 07:10:33;;;;;;;8.73;2.50;;;;;;;;;;5103443;28;20440;-65
2023/09/19 07:13:01;;;;;;;9.20;2.70;;;;;;;;;;5102407;28;20928;-65
2023/09/19 07:15:30;;;;;;;12.73;2.75;;;;;;;;;;5100353;28;20421;-65
2023/09/19 07:17:57;;;;;;;11.23;2.78;;;;;;;;;;5100943;28;20446;-64
2023/09/19 07:20:26;;;;;;;10.68;2.63;;;;;;;;;;5103064;28;20404;-66
2023/09/19 07:22:54;;;;;;;10.30;2.95;;;;;;;;;;5101989;28;20406;-65
2023/09/19 07:25:21;;;;;;;12.50;2.90;;;;;;;;;;5105696;27;20415;-65
2023/09/19 07:27:48;;;;;;;10.35;2.75;;;;;;;;;;5105376;28;20423;-65
2023/09/19 07:30:16;;;;;;;12.75;2.78;;;;;;;;;;5102972;28;20404;-65
2023/09/19 07:32:44;;;;;;;8.47;2.53;;;;;;;;;;5100349;28;20451;-66
2023/09/19 07:35:12;;;;;;;13.60;2.97;;;;;;;;;;5100735;28;20405;-65
2023/09/19 07:37:39;;;;;;;10.60;2.58;;;;;;;;;;5102999;28;20502;-65
2023/09/19 07:40:07;;;;;;;11.07;2.60;;;;;;;;;;5101369;28;20904;-65
2023/09/19 07:42:36;;;;;;;10.88;2.90;;;;;;;;;;5099950;28;20508;-64
2023/09/19 07:45:03;;;;;;;12.07;2.63;;;;;;;;;;5101407;28;20509;-65
2023/09/19 07:47:32;;;;;;;9.52;2.53;;;;;;;;;;5102384;28;20861;-65
2023/09/19 07:50:01;;;;;;;11.57;2.55;;;;;;;;;;5100545;28;20457;-66
2023/09/19 07:52:28;;;;;;;10.85;2.45;;;;;;;;;;5099925;28;20420;-65
2023/09/19 07:54:57;;;;;;;13.93;2.50;;;;;;;;;;5102650;27;20400;-65
2023/09/19 07:57:24;;;;;;;14.63;3.13;;;;;;;;;;5103513;28;20449;-66
2023/09/19 07:59:51;;;;;;;11.27;2.85;;;;;;;;;;5099961;28;20458;-65
2023/09/19 08:02:18;;;;;;;12.00;3.40;;;;;;;;;;5100179;27;20407;-64
2023/09/19 08:04:46;;;;;;;14.07;2.50;;;;;;;;;;5110855;27;20461;-65
2023/09/19 08:07:15;;;;;;;12.75;2.67;;;;;;;;;;5106250;27;20882;-64
2023/09/19 08:09:46;;;;;;;15.32;2.80;;;;;;;;;;5106670;28;20985;-64
2023/09/19 08:12:14;;;;;;;10.85;2.85;;;;;;;;;;5100348;28;20401;-65
2023/09/19 08:14:42;;;;;;;11.63;2.38;;;;;;;;;;5098727;28;20773;-64
2023/09/19 08:17:09;;;;;;;10.50;2.80;;;;;;;;;;5099850;28;20452;-65
2023/09/19 08:19:36;;;;;;;9.93;2.65;;;;;;;;;;5099550;28;20403;-66
2023/09/19 08:22:03;;;;;;;11.77;2.60;;;;;;;;;;5098819;28;20409;-64
2023/09/19 08:24:33;;;;;;;13.70;3.00;;;;;;;;;;5104258;28;20412;-65
2023/09/19 08:27:00;;;;;;;12.93;3.10;;;;;;;;;;5103466;28;20866;-62
2023/09/19 08:29:29;;;;;;;10.48;2.55;;;;;;;;;;5102427;28;20422;-62
2023/09/19 08:31:56;;;;;;;14.88;2.60;;;;;;;;;;5098846;28;20413;-63
2023/09/19 08:34:23;;;;;;;12.20;3.42;;;;;;;;;;5113403;27;20491;-62
2023/09/19 08:36:52;;;;;;;11.60;3.10;;;;;;;;;;5100036;28;20547;-63
2023/09/19 08:39:19;;;;;;;12.63;3.17;;;;;;;;;;5089774;28;20433;-61
2023/09/19 08:41:48;;;;;;;11.63;2.73;;;;;;;;;;5089597;28;20528;-63
2023/09/19 08:44:15;;;;;;;12.00;2.83;;;;;;;;;;5089494;28;20421;-62
2023/09/19 08:46:43;;;;;;;13.48;3.10;;;;;;;;;;5089979;28;20455;-63
2023/09/19 08:49:15;;;;;;;13.43;3.28;;;;;;;;;;5090045;28;20429;-64
2023/09/19 08:51:45;;;;;;;9.65;2.63;;;;;;;;;;5096142;28;20779;-64
2023/09/19 08:54:18;;;;;;;11.27;2.88;;;;;;;;;;5098484;28;20875;-63
2023/09/19 08:56:47;;;;;;;10.85;2.47;;;;;;;;;;5104756;28;20412;-64
2023/09/19 08:59:16;;;;;;;12.77;2.75;;;;;;;;;;5101495;28;20409;-63
2023/09/19 09:01:43;;;;;;;11.57;2.65;;;;;;;;;;5099973;28;20484;-64
2023/09/19 09:04:12;;;;;;;12.43;2.50;;;;;;;;;;5098348;28;20409;-65
2023/09/19 09:06:40;;;;;;;10.13;2.50;;;;;;;;;;5100079;28;20447;-64
2023/09/19 09:09:09;;;;;;;11.02;2.78;;;;;;;;;;5101397;28;20515;-65
2023/09/19 09:11:37;;;;;;;10.68;2.60;;;;;;;;;;5100029;28;20898;-64
2023/09/19 09:14:04;;;;;;;11.73;2.42;;;;;;;;;;5098771;28;20421;-63
2023/09/19 09:16:32;;;;;;;11.73;2.40;;;;;;;;;;5101337;28;20838;-64
2023/09/19 09:18:59;;;;;;;9.38;2.53;;;;;;;;;;5104471;28;20870;-65
2023/09/19 09:21:27;;;;;;;11.85;2.30;;;;;;;;;;5102115;28;20439;-64
2023/09/19 09:23:54;;;;;;;12.63;2.63;;;;;;;;;;5103518;28;20474;-65
2023/09/19 09:26:42;;;;;;;12.13;2.63;;;;;;;;;;5113560;27;20488;-64
2023/09/19 09:29:09;;;;;;;10.98;2.53;;;;;;;;;;5104051;28;20421;-65
2023/09/19 09:31:37;;;;;;;12.13;2.40;;;;;;;;;;5108197;27;20414;-64
2023/09/19 09:34:04;;;;;;;17.90;5.88;;;;;;;;;;5111712;27;20410;-64
2023/09/19 09:36:36;;;;;;;11.25;2.88;;;;;;;;;;5109130;28;20410;-64
2023/09/19 09:39:15;;;;;;;10.00;2.65;;;;;;;;;;5111170;27;20402;-66
2023/09/19 09:41:43;;;;;;;10.63;2.40;;;;;;;;;;5110308;28;20415;-64
2023/09/19 09:44:15;;;;;;;8.02;2.40;;;;;;;;;;5100827;28;20973;-65
2023/09/19 09:47:27;;;;;;;9.10;2.50;;;;;;;;;;5105456;28;20412;-63
2023/09/19 09:49:54;;;;;;;10.43;2.35;;;;;;;;;;5106618;28;20508;-63
2023/09/19 09:52:24;;;;;;;6.78;2.25;;;;;;;;;;5104247;28;20762;-62
2023/09/19 09:55:00;;;;;;;9.57;2.50;;;;;;;;;;5106366;27;20834;-62
2023/09/19 09:57:27;;;;;;;7.43;2.30;;;;;;;;;;5104763;28;20488;-62
2023/09/19 09:59:58;;;;;;;7.32;2.15;;;;;;;;;;5104326;28;20923;-63
2023/09/19 10:02:32;;;;;;;10.50;2.55;;;;;;;;;;5102687;28;20890;-63
2023/09/19 10:05:09;;;;;;;11.43;2.75;;;;;;;;;;5101492;28;20402;-63
2023/09/19 10:07:38;;;;;;;8.02;2.47;;;;;;;;;;5101484;28;20432;-65
2023/09/19 10:10:15;;;;;;;8.45;2.40;;;;;;;;;;5103019;28;20859;-67
2023/09/19 10:12:45;;;;;;;10.88;2.38;;;;;;;;;;5106443;28;20434;-68
2023/09/19 10:15:16;;;;;;;19.85;2.90;;;;;;;;;;5106310;28;20898;-67
2023/09/19 10:17:46;;;;;;;10.10;2.28;;;;;;;;;;5105104;28;20412;-67
2023/09/19 10:20:33;;;;;;;9.50;2.65;;;;;;;;;;5101416;28;20899;-65
2023/09/19 10:23:01;;;;;;;8.55;2.42;;;;;;;;;;5101370;28;20414;-65
2023/09/19 10:25:30;;;;;;;9.15;2.70;;;;;;;;;;5106485;27;20408;-66
2023/09/19 10:27:58;;;;;;;13.15;4.55;;;;;;;;;;5107751;28;20419;-68
2023/09/19 10:30:28;;;;;;;8.52;2.85;;;;;;;;;;5098553;28;20428;-67
2023/09/19 10:32:59;;;;;;;11.75;3.30;;;;;;;;;;5104467;28;20412;-67
2023/09/19 10:35:27;;;;;;;12.07;2.90;;;;;;;;;;5102233;28;20523;-66
2023/09/19 10:37:55;;;;;;;8.32;2.60;;;;;;;;;;5098325;28;20420;-67
2023/09/19 10:40:26;;;;;;;17.98;7.05;;;;;;;;;;5098177;28;20485;-67
2023/09/19 10:42:55;;;;;;;13.02;4.03;;;;;;;;;;5100319;27;20428;-66
2023/09/19 10:45:25;;;;;;;7.13;2.08;;;;;;;;;;5107378;27;20420;-66
2023/09/19 10:47:52;;;;;;;9.38;2.38;;;;;;;;;;5101742;28;20423;-65
2023/09/19 10:50:22;;;;;;;8.83;2.13;;;;;;;;;;5098519;28;20501;-66
2023/09/19 10:52:57;;;;;;;8.15;2.30;;;;;;;;;;5097920;28;20414;-66
2023/09/19 10:55:27;;;;;;;8.38;2.40;;;;;;;;;;5105935;27;20445;-65
2023/09/19 10:58:11;;;;;;;8.15;2.40;;;;;;;;;;5103683;28;20476;-66
2023/09/19 11:00:53;;;;;;;8.50;2.47;;;;;;;;;;5100300;28;21010;-66
2023/09/19 11:03:23;;;;;;;7.75;2.05;;;;;;;;;;5100082;28;20443;-66
2023/09/19 11:06:06;;;;;;;9.07;2.63;;;;;;;;;;5096305;28;20465;-67
2023/09/19 11:11:46;;;;;;;6.18;2.10;;;;;;;;;;5077205;28;20362;-65
2023/09/19 11:14:16;;;;;;;8.98;2.28;;;;;;;;;;5072805;28;20427;-66
2023/09/19 11:17:20;;;;;;;9.18;2.50;;;;;;;;;;5074700;28;20411;-65
2023/09/19 11:20:24;;;;;;;8.48;2.00;;;;;;;;;;5072127;28;20407;-65
2023/09/19 11:23:09;;;;;;;9.00;2.50;;;;;;;;;;5075590;28;20403;-66
2023/09/19 11:25:47;;;;;;;6.40;2.10;;;;;;;;;;5078024;28;20403;-69
2023/09/19 11:28:31;;;;;;;7.15;2.30;;;;;;;;;;5069592;28;20409;-66
2023/09/19 11:30:59;;;;;;;6.88;2.17;;;;;;;;;;5074464;28;20859;-67
2023/09/19 11:33:31;;;;;;;8.75;2.30;;;;;;;;;;5076084;28;20501;-68
2023/09/19 11:36:04;;;;;;;9.63;2.00;;;;;;;;;;5077306;28;20423;-67
2023/09/19 11:38:50;;;;;;;7.30;1.90;;;;;;;;;;5075071;28;20407;-67
2023/09/19 11:41:37;;;;;;;7.15;2.13;;;;;;;;;;5075538;28;20466;-67
2023/09/19 11:44:33;;;;;;;6.72;2.33;;;;;;;;;;5067385;28;20467;-66
2023/09/19 11:47:03;;;;;;;5.40;2.10;;;;;;;;;;5041081;28;20922;-67
2023/09/19 11:49:31;;;;;;;8.05;2.30;;;;;;;;;;5072906;28;20429;-66
2023/09/19 11:52:01;;;;;;;8.30;2.13;;;;;;;;;;5076825;28;20927;-67
2023/09/19 11:54:31;;;;;;;7.72;2.47;;;;;;;;;;5074675;28;20500;-67
2023/09/19 11:56:58;;;;;;;6.72;2.13;;;;;;;;;;5071365;28;20995;-67
2023/09/19 11:59:28;;;;;;;10.35;2.25;;;;;;;;;;5073394;28;20411;-66
2023/09/19 12:01:57;;;;;;;9.73;2.47;;;;;;;;;;5073187;28;20494;-65
2023/09/19 12:04:37;;;;;;;7.97;2.13;;;;;;;;;;5072811;28;20455;-66
2023/09/19 12:07:05;;;;;;;7.30;2.13;;;;;;;;;;5063644;28;20895;-65
2023/09/19 12:09:32;;;;;;;8.23;2.28;;;;;;;;;;5063417;28;20470;-65
2023/09/19 12:11:59;;;;;;;10.13;2.67;;;;;;;;;;5071417;28;20451;-64
2023/09/19 12:14:28;;;;;;;7.25;2.13;;;;;;;;;;5073416;28;20415;-66
2023/09/19 12:16:56;;;;;;;7.53;2.22;;;;;;;;;;5075434;28;20411;-66
2023/09/19 12:19:23;;;;;;;10.30;2.40;;;;;;;;;;5076668;28;20413;-67
2023/09/19 12:22:05;;;;;;;7.65;2.40;;;;;;;;;;5060574;28;20835;-66
2023/09/19 12:24:32;;;;;;;7.82;2.40;;;;;;;;;;5057666;28;20474;-63
2023/09/19 12:27:04;;;;;;;6.78;1.92;;;;;;;;;;5057697;28;20417;-66
2023/09/19 12:29:32;;;;;;;7.97;2.10;;;;;;;;;;5065700;28;20499;-65
2023/09/19 12:32:03;;;;;;;9.07;2.38;;;;;;;;;;5062936;28;20415;-65
2023/09/19 12:34:34;;;;;;;7.22;2.20;;;;;;;;;;5061594;28;20414;-64
2023/09/19 12:37:15;;;;;;;8.75;2.25;;;;;;;;;;5061693;28;20555;-65
2023/09/19 12:39:43;;;;;;;7.32;2.15;;;;;;;;;;5066048;28;20403;-65
2023/09/19 12:42:13;;;;;;;5.57;1.90;;;;;;;;;;5061115;28;20756;-65
2023/09/19 12:44:43;;;;;;;8.97;2.13;;;;;;;;;;5061551;28;20470;-65
2023/09/19 12:47:11;;;;;;;7.70;2.20;;;;;;;;;;5063976;28;20416;-67
2023/09/19 12:49:58;;;;;;;5.97;1.98;;;;;;;;;;5056007;28;20425;-65
2023/09/19 12:52:27;;;;;;;5.75;1.77;;;;;;;;;;5057845;28;20531;-65
2023/09/19 12:54:54;;;;;;;5.50;1.80;;;;;;;;;;5055714;28;20402;-65
2023/09/19 12:57:26;;;;;;;6.60;2.28;;;;;;;;;;5070046;28;20775;-64
2023/09/19 12:59:53;;;;;;;5.75;2.08;;;;;;;;;;5052194;28;20463;-64
2023/09/19 13:02:23;;;;;;;8.25;1.98;;;;;;;;;;5053540;28;20415;-64
2023/09/19 13:04:53;;;;;;;7.43;2.10;;;;;;;;;;5050544;28;20476;-64
2023/09/19 13:07:35;;;;;;;4.93;1.92;;;;;;;;;;5056772;28;20421;-63
2023/09/19 13:10:09;;;;;;;6.50;2.00;;;;;;;;;;5052935;28;20424;-64
2023/09/19 13:12:36;;;;;;;5.87;1.90;;;;;;;;;;5052591;28;20421;-65
2023/09/19 13:15:13;;;;;;;5.43;1.60;;;;;;;;;;5056362;28;20467;-66
2023/09/19 13:17:48;;;;;;;5.60;1.50;;;;;;;;;;5054030;28;21111;-66
2023/09/19 13:20:27;;;;;;;5.45;1.98;;;;;;;;;;5050438;28;20421;-66
2023/09/19 13:22:58;;;;;;;7.03;1.98;;;;;;;;;;5053530;28;20452;-65
2023/09/19 13:25:29;;;;;;;4.43;1.67;;;;;;;;;;5059628;28;20477;-67
2023/09/19 13:27:56;;;;;;;7.03;1.70;;;;;;;;;;5052812;28;20488;-66
2023/09/19 13:30:25;;;;;;;6.97;1.83;;;;;;;;;;5057629;28;20429;-67
2023/09/19 13:32:53;;;;;;;5.88;1.90;;;;;;;;;;5054915;28;20487;-67
2023/09/19 13:35:20;;;;;;;5.95;1.50;;;;;;;;;;5057905;28;20828;-67
2023/09/19 13:37:48;;;;;;;7.32;1.70;;;;;;;;;;5058751;28;20403;-66
2023/09/19 13:40:16;;;;;;;9.18;1.80;;;;;;;;;;5057297;28;20413;-66
2023/09/19 13:42:45;;;;;;;4.68;1.67;;;;;;;;;;5057615;28;20510;-65
2023/09/19 13:45:15;;;;;;;5.13;1.43;;;;;;;;;;5056567;28;20415;-66
2023/09/19 13:47:42;;;;;;;4.90;1.55;;;;;;;;;;5058054;28;20888;-65
2023/09/19 13:50:10;;;;;;;7.90;1.58;;;;;;;;;;5055951;28;20448;-66
2023/09/19 13:52:38;;;;;;;6.30;1.40;;;;;;;;;;5056941;28;20467;-65
2023/09/19 13:55:06;;;;;;;5.45;1.45;;;;;;;;;;5061503;28;21061;-64
2023/09/19 13:57:34;;;;;;;6.80;1.80;;;;;;;;;;5052705;28;20502;-65
2023/09/19 14:00:04;;;;;;;5.38;1.45;;;;;;;;;;5055462;28;20424;-66
2023/09/19 14:02:32;;;;;;;6.20;1.33;;;;;;;;;;5057366;28;20413;-66
2023/09/19 14:04:59;;;;;;;3.53;1.30;;;;;;;;;;5056223;28;20409;-66
2023/09/19 14:07:26;;;;;;;3.50;1.15;;;;;;;;;;5058555;28;20490;-65
2023/09/19 14:09:53;;;;;;;3.83;1.40;;;;;;;;;;5058499;28;20412;-65
2023/09/19 14:12:21;;;;;;;4.70;1.30;;;;;;;;;;5055608;28;20492;-66
2023/09/19 14:14:50;;;;;;;6.65;1.50;;;;;;;;;;5056661;28;21083;-66
2023/09/19 14:17:19;;;;;;;4.80;1.30;;;;;;;;;;5054650;28;20512;-64
2023/09/19 14:19:46;;;;;;;6.65;1.25;;;;;;;;;;5060168;28;20404;-65
2023/09/19 14:22:14;;;;;;;5.55;1.10;;;;;;;;;;5057937;28;20417;-65
2023/09/19 14:24:41;;;;;;;5.13;1.23;;;;;;;;;;5059818;28;20416;-65
2023/09/19 14:27:11;;;;;;;6.18;1.13;;;;;;;;;;5052326;28;20504;-65
2023/09/19 14:29:38;;;;;;;5.28;1.20;;;;;;;;;;5047208;28;20409;-67
2023/09/19 14:32:05;;;;;;;3.65;1.67;;;;;;;;;;5047279;28;20421;-66
2023/09/19 14:34:34;;;;;;;7.00;1.30;;;;;;;;;;5047542;28;20437;-66
2023/09/19 14:37:01;;;;;;;5.53;1.20;;;;;;;;;;5047563;28;20471;-65
2023/09/19 14:39:28;;;;;;;3.03;1.20;;;;;;;;;;5047378;28;20417;-67
2023/09/19 14:41:55;;;;;;;6.13;1.20;;;;;;;;;;5050596;28;20413;-65
2023/09/19 14:44:22;;;;;;;3.90;1.10;;;;;;;;;;5059376;28;20892;-65
2023/09/19 14:46:49;;;;;;;3.78;1.20;;;;;;;;;;5051229;28;20488;-64
2023/09/19 14:49:16;;;;;;;2.03;1.10;;;;;;;;;;5050897;28;20413;-64
2023/09/19 14:51:47;;;;;;;4.10;1.30;;;;;;;;;;5049979;28;20508;-63
2023/09/19 14:54:16;;;;;;;3.30;1.30;;;;;;;;;;5050385;28;20430;-65